Time;durP1;ratioP1;P1;durP2;ratioP2;P2;SDS_P1;SDS_P2;PMS_P1;PMS_P2;Temp;Humidity;BMP_temperature;BMP_pressure;BME280_temperature;BME280_humidity;BME280_pressure;Samples;Min_cycle;Max_cycle;Signal;HPM_P1;HPM_P2
2023/03/08 00:02:00;;;;;;;13.77;8.10;;;4.50;14.30;;;;;;5019362;28;21001;-62
2023/03/08 00:04:27;;;;;;;22.90;8.53;;;4.50;14.40;;;;;;5025553;28;20477;-60
2023/03/08 00:06:54;;;;;;;12.83;7.27;;;4.50;14.30;;;;;;5018815;28;20966;-60
2023/03/08 00:09:20;;;;;;;14.63;8.40;;;4.50;14.30;;;;;;5018101;28;20463;-59
2023/03/08 00:11:48;;;;;;;16.03;8.10;;;4.50;14.40;;;;;;5020775;28;20463;-59
2023/03/08 00:14:16;;;;;;;13.57;7.23;;;4.50;14.40;;;;;;5017268;28;20505;-59
2023/03/08 00:16:43;;;;;;;15.17;8.30;;;4.50;14.40;;;;;;5022324;28;20566;-61
2023/03/08 00:19:10;;;;;;;12.63;6.33;;;4.50;14.50;;;;;;5016712;28;20471;-59
2023/03/08 00:21:36;;;;;;;16.17;8.60;;;4.50;14.60;;;;;;5018944;28;20463;-59
2023/03/08 00:24:03;;;;;;;13.23;7.43;;;4.50;14.60;;;;;;5015529;28;20966;-60
2023/03/08 00:26:30;;;;;;;18.70;8.13;;;4.40;14.60;;;;;;5018858;28;20479;-59
2023/03/08 00:28:58;;;;;;;12.10;7.20;;;4.50;14.70;;;;;;5016158;28;20974;-59
2023/03/08 00:31:25;;;;;;;14.60;7.57;;;4.40;14.70;;;;;;5020440;28;20480;-60
2023/03/08 00:33:53;;;;;;;14.97;8.27;;;4.40;14.80;;;;;;5023673;28;20485;-59
2023/03/08 00:36:20;;;;;;;14.27;7.00;;;4.40;14.70;;;;;;5015823;28;20491;-59
2023/03/08 00:38:49;;;;;;;12.43;6.63;;;4.50;14.80;;;;;;5016807;28;20839;-59
2023/03/08 00:41:17;;;;;;;17.63;8.43;;;4.50;14.80;;;;;;5017664;28;20642;-60
2023/03/08 00:43:43;;;;;;;12.63;7.00;;;4.50;14.80;;;;;;5015467;28;20447;-60
2023/03/08 00:46:12;;;;;;;15.40;8.97;;;4.40;14.80;;;;;;5020404;28;20455;-60
2023/03/08 00:48:39;;;;;;;13.90;7.33;;;4.50;14.90;;;;;;5021757;28;20470;-59
2023/03/08 00:51:06;;;;;;;14.20;7.53;;;4.50;14.90;;;;;;5021210;28;20473;-61
2023/03/08 00:53:33;;;;;;;16.47;8.53;;;4.50;14.70;;;;;;5021717;28;20963;-60
2023/03/08 00:56:01;;;;;;;15.83;7.50;;;4.50;14.60;;;;;;5016929;28;20458;-59
2023/03/08 00:58:29;;;;;;;13.40;6.87;;;4.50;14.60;;;;;;5019097;28;20521;-60
2023/03/08 01:00:56;;;;;;;14.90;7.07;;;4.40;14.80;;;;;;5023775;28;20486;-60
2023/03/08 01:03:25;;;;;;;14.60;7.80;;;4.40;14.90;;;;;;5020574;28;21213;-59
2023/03/08 01:05:54;;;;;;;15.47;7.93;;;4.30;15.00;;;;;;5018914;28;20478;-59
2023/03/08 01:08:22;;;;;;;14.30;6.97;;;4.30;15.20;;;;;;5020352;28;20487;-60
2023/03/08 01:10:49;;;;;;;13.53;6.90;;;4.30;15.20;;;;;;5017286;28;20470;-60
2023/03/08 01:13:17;;;;;;;16.40;7.97;;;4.30;15.00;;;;;;5028613;28;20462;-61
2023/03/08 01:15:44;;;;;;;17.40;8.00;;;4.30;15.20;;;;;;5017822;28;20492;-60
2023/03/08 01:18:11;;;;;;;12.70;6.10;;;4.30;15.30;;;;;;5024348;28;20485;-59
2023/03/08 01:20:39;;;;;;;12.87;7.70;;;4.30;15.10;;;;;;5021742;28;20466;-59
2023/03/08 01:23:06;;;;;;;16.37;7.50;;;4.30;15.10;;;;;;5024497;28;20459;-59
2023/03/08 01:25:32;;;;;;;14.27;7.30;;;4.30;15.10;;;;;;5021274;28;20940;-59
2023/03/08 01:27:59;;;;;;;13.20;6.90;;;4.30;15.20;;;;;;5022253;28;20567;-59
2023/03/08 01:30:26;;;;;;;12.50;7.67;;;4.20;15.30;;;;;;5024792;28;20474;-58
2023/03/08 01:32:53;;;;;;;13.90;6.60;;;4.20;15.30;;;;;;5023450;28;20470;-59
2023/03/08 01:35:20;;;;;;;13.43;7.30;;;4.20;15.40;;;;;;5018579;28;20490;-60
2023/03/08 01:37:52;;;;;;;14.27;7.30;;;4.20;15.50;;;;;;5020437;28;21029;-60
2023/03/08 01:40:19;;;;;;;13.70;7.30;;;4.20;15.60;;;;;;5024147;28;20955;-60
2023/03/08 01:42:45;;;;;;;12.37;7.20;;;4.20;15.70;;;;;;5025387;28;21032;-60
2023/03/08 01:45:45;;;;;;;11.97;7.40;;;4.20;15.70;;;;;;5019301;28;20462;-59
2023/03/08 01:48:14;;;;;;;14.70;8.00;;;4.20;15.90;;;;;;5019442;28;20479;-60
2023/03/08 01:50:41;;;;;;;14.40;7.13;;;4.20;15.60;;;;;;5025677;28;20485;-61
2023/03/08 01:53:09;;;;;;;13.50;7.57;;;4.10;15.70;;;;;;5024121;28;20924;-59
2023/03/08 01:55:36;;;;;;;11.93;6.27;;;4.10;15.80;;;;;;5023520;28;20482;-59
2023/03/08 01:58:03;;;;;;;12.20;6.67;;;4.10;15.80;;;;;;5019492;28;20479;-59
2023/03/08 02:00:30;;;;;;;13.33;6.97;;;4.00;15.90;;;;;;5022811;28;20464;-59
2023/03/08 02:03:00;;;;;;;15.10;7.97;;;4.00;16.00;;;;;;5021966;28;20821;-59
2023/03/08 02:05:27;;;;;;;13.67;8.03;;;4.00;16.10;;;;;;5024461;28;20465;-59
2023/03/08 02:07:54;;;;;;;13.50;7.03;;;4.00;16.10;;;;;;5019914;28;21036;-60
2023/03/08 02:10:22;;;;;;;11.33;6.70;;;4.00;16.20;;;;;;5018564;28;20463;-60
2023/03/08 02:12:49;;;;;;;18.80;7.90;;;4.00;16.20;;;;;;5018314;28;20462;-60
2023/03/08 02:15:18;;;;;;;14.30;7.33;;;3.90;16.40;;;;;;5016111;28;20483;-60
2023/03/08 02:17:46;;;;;;;16.80;7.53;;;3.80;16.50;;;;;;5022148;28;20486;-60
2023/03/08 02:20:17;;;;;;;14.90;7.57;;;3.80;16.80;;;;;;5012937;28;20468;-60
2023/03/08 02:22:46;;;;;;;13.67;7.67;;;3.80;16.70;;;;;;5019814;28;20458;-60
2023/03/08 02:25:14;;;;;;;14.33;6.80;;;3.70;17.30;;;;;;5021644;28;20463;-59
2023/03/08 02:27:41;;;;;;;13.30;7.20;;;3.70;16.90;;;;;;5023700;28;20858;-61
2023/03/08 02:30:10;;;;;;;13.23;6.80;;;3.70;16.90;;;;;;5025023;28;20989;-60
2023/03/08 02:32:37;;;;;;;15.33;7.47;;;3.70;17.10;;;;;;5028151;28;20721;-60
2023/03/08 02:35:04;;;;;;;16.43;7.73;;;3.70;17.10;;;;;;5030411;28;20589;-60
2023/03/08 02:37:32;;;;;;;15.93;7.57;;;3.70;17.20;;;;;;5017964;28;20480;-58
2023/03/08 02:40:00;;;;;;;15.20;7.70;;;3.70;17.40;;;;;;5021624;28;21014;-59
2023/03/08 02:42:27;;;;;;;13.87;8.40;;;3.60;17.40;;;;;;5019331;28;20475;-59
2023/03/08 02:44:54;;;;;;;15.27;8.03;;;3.60;17.50;;;;;;5018237;28;20466;-60
2023/03/08 02:47:20;;;;;;;18.70;10.40;;;3.60;17.40;;;;;;5019475;28;20482;-59
2023/03/08 02:49:47;;;;;;;13.00;6.70;;;3.70;17.60;;;;;;5018393;28;20469;-59
2023/03/08 02:52:14;;;;;;;14.40;7.97;;;3.70;17.60;;;;;;5012765;28;20456;-60
2023/03/08 02:54:40;;;;;;;14.10;7.30;;;3.70;17.60;;;;;;5017465;28;20987;-59
2023/03/08 02:57:08;;;;;;;16.27;8.27;;;3.80;17.60;;;;;;5016658;28;20483;-60
2023/03/08 02:59:35;;;;;;;16.40;8.93;;;3.70;17.70;;;;;;5020858;28;20467;-59
2023/03/08 03:02:02;;;;;;;14.80;8.57;;;3.70;17.70;;;;;;5022645;28;20482;-59
2023/03/08 03:04:29;;;;;;;16.50;7.80;;;3.80;17.70;;;;;;5017004;28;20460;-61
2023/03/08 03:06:57;;;;;;;16.70;9.30;;;3.80;17.70;;;;;;5020064;28;20478;-58
2023/03/08 03:09:23;;;;;;;17.47;9.13;;;3.80;17.60;;;;;;5020907;28;20452;-58
2023/03/08 03:11:50;;;;;;;16.23;8.87;;;3.90;17.70;;;;;;5019874;28;20494;-58
2023/03/08 03:14:18;;;;;;;15.73;9.40;;;3.90;17.70;;;;;;5014725;28;20456;-60
2023/03/08 03:16:45;;;;;;;15.70;8.93;;;4.00;17.80;;;;;;5019517;28;20486;-59
2023/03/08 03:19:12;;;;;;;14.70;9.37;;;4.00;17.70;;;;;;5020327;28;20824;-59
2023/03/08 03:21:40;;;;;;;16.60;8.83;;;4.00;17.80;;;;;;5019251;28;20462;-59
2023/03/08 03:24:07;;;;;;;17.70;8.87;;;4.00;17.90;;;;;;5022706;28;20466;-59
2023/03/08 03:26:34;;;;;;;17.17;9.27;;;4.00;17.90;;;;;;5018472;28;20483;-58
2023/03/08 03:29:01;;;;;;;17.83;9.50;;;4.00;17.90;;;;;;5013205;28;20851;-60
2023/03/08 03:31:29;;;;;;;14.50;7.87;;;4.00;18.10;;;;;;5020606;28;20478;-59
2023/03/08 03:33:57;;;;;;;15.80;9.20;;;4.00;18.00;;;;;;5022612;28;20546;-60
2023/03/08 03:36:23;;;;;;;16.80;8.90;;;4.00;18.30;;;;;;5017876;28;20479;-59
2023/03/08 03:38:50;;;;;;;19.17;9.50;;;4.00;18.30;;;;;;5017637;28;20472;-60
2023/03/08 03:41:19;;;;;;;19.13;10.90;;;4.00;18.50;;;;;;5021958;28;20534;-59
2023/03/08 03:43:46;;;;;;;15.53;9.70;;;4.00;18.40;;;;;;5024091;28;20462;-59
2023/03/08 03:46:14;;;;;;;18.90;10.37;;;4.00;18.40;;;;;;5017002;28;20830;-60
2023/03/08 03:48:43;;;;;;;17.97;10.13;;;4.00;18.60;;;;;;5016547;28;20498;-60
2023/03/08 03:51:12;;;;;;;18.13;10.13;;;4.00;18.50;;;;;;5012575;28;20462;-60
2023/03/08 03:53:40;;;;;;;14.67;9.83;;;4.00;18.40;;;;;;5011888;28;20470;-60
2023/03/08 03:56:09;;;;;;;20.33;10.07;;;4.10;18.60;;;;;;5016373;28;20493;-60
2023/03/08 03:58:35;;;;;;;18.23;9.73;;;4.00;18.50;;;;;;5019329;28;20467;-60
2023/03/08 04:01:07;;;;;;;18.50;9.90;;;4.00;18.80;;;;;;5017436;28;20490;-59
2023/03/08 04:03:34;;;;;;;20.40;10.77;;;4.00;18.80;;;;;;5020916;28;20451;-59
2023/03/08 04:06:07;;;;;;;19.47;10.20;;;3.90;18.90;;;;;;5023496;28;20458;-59
2023/03/08 04:08:34;;;;;;;19.40;10.60;;;3.90;19.00;;;;;;5021421;28;20889;-59
2023/03/08 04:11:01;;;;;;;19.53;11.20;;;3.90;19.20;;;;;;5019083;28;20459;-59
2023/03/08 04:13:27;;;;;;;18.20;11.37;;;3.90;19.20;;;;;;5018463;28;20459;-59
2023/03/08 04:15:54;;;;;;;20.17;11.33;;;3.90;19.30;;;;;;5022819;28;20479;-58
2023/03/08 04:18:21;;;;;;;20.80;11.80;;;3.90;19.30;;;;;;5016271;28;20484;-59
2023/03/08 04:20:47;;;;;;;22.83;11.90;;;3.90;19.30;;;;;;5015599;28;20464;-61
2023/03/08 04:23:15;;;;;;;18.73;11.03;;;3.90;19.40;;;;;;5015037;28;21148;-60
2023/03/08 04:25:42;;;;;;;21.47;11.10;;;3.90;19.40;;;;;;5011072;28;20506;-59
2023/03/08 04:28:09;;;;;;;20.20;11.20;;;4.00;19.40;;;;;;5015043;28;20487;-59
2023/03/08 04:30:35;;;;;;;18.70;10.60;;;4.00;19.40;;;;;;5017237;28;20848;-59
2023/03/08 04:33:02;;;;;;;22.20;11.60;;;4.00;19.30;;;;;;5015050;28;20463;-59
2023/03/08 04:35:29;;;;;;;19.40;11.10;;;4.00;19.40;;;;;;5019070;28;20484;-58
2023/03/08 04:37:56;;;;;;;20.80;12.10;;;4.00;19.30;;;;;;5015316;28;20483;-60
2023/03/08 04:40:24;;;;;;;21.10;12.53;;;4.00;19.80;;;;;;5017698;28;20463;-60
2023/03/08 04:42:50;;;;;;;19.97;11.00;;;4.00;19.40;;;;;;5017285;28;21367;-58
2023/03/08 04:45:17;;;;;;;18.53;11.97;;;4.10;19.40;;;;;;5019565;28;20822;-61
2023/03/08 04:47:44;;;;;;;19.97;11.50;;;4.10;19.30;;;;;;5017201;28;20480;-59
2023/03/08 04:50:11;;;;;;;18.27;11.80;;;4.10;19.40;;;;;;5019829;28;20480;-59
2023/03/08 04:52:38;;;;;;;19.30;12.00;;;4.10;19.40;;;;;;5021550;28;20463;-59
2023/03/08 04:55:06;;;;;;;20.07;11.57;;;4.20;19.40;;;;;;5016505;28;20516;-60
2023/03/08 04:57:35;;;;;;;21.57;12.07;;;4.10;19.50;;;;;;5018991;28;20487;-59
2023/03/08 05:00:03;;;;;;;20.47;11.47;;;4.10;19.60;;;;;;5021675;28;20564;-59
2023/03/08 05:02:30;;;;;;;22.93;12.70;;;4.10;19.80;;;;;;5016077;28;20479;-59
2023/03/08 05:04:57;;;;;;;21.27;11.83;;;4.10;19.90;;;;;;5015486;28;20462;-59
2023/03/08 05:07:24;;;;;;;26.73;12.00;;;4.10;19.90;;;;;;5012987;28;20479;-61
2023/03/08 05:09:51;;;;;;;20.77;12.73;;;4.10;19.90;;;;;;5016036;28;20454;-61
2023/03/08 05:12:17;;;;;;;20.90;11.70;;;4.10;20.00;;;;;;5018546;28;20466;-61
2023/03/08 05:14:45;;;;;;;24.30;12.47;;;4.10;20.10;;;;;;5008591;28;20466;-60
2023/03/08 05:17:12;;;;;;;20.87;11.90;;;4.10;20.10;;;;;;5018753;28;20481;-61
2023/03/08 05:19:39;;;;;;;20.10;11.87;;;4.10;20.00;;;;;;5019389;28;20483;-59
2023/03/08 05:22:05;;;;;;;24.50;13.70;;;4.10;20.00;;;;;;5013320;28;20460;-60
2023/03/08 05:24:32;;;;;;;20.53;12.10;;;4.10;20.00;;;;;;5021055;28;20505;-60
2023/03/08 05:26:59;;;;;;;18.83;11.40;;;4.10;20.00;;;;;;5010916;28;20475;-60
2023/03/08 05:29:26;;;;;;;22.10;12.17;;;4.10;20.00;;;;;;5019363;28;20974;-60
2023/03/08 05:31:54;;;;;;;28.23;13.97;;;4.10;20.00;;;;;;5013817;28;20528;-60
2023/03/08 05:34:20;;;;;;;20.03;12.53;;;4.20;20.00;;;;;;5017252;28;20459;-59
2023/03/08 05:36:47;;;;;;;23.70;12.93;;;4.20;20.10;;;;;;5015860;28;20846;-60
2023/03/08 05:39:14;;;;;;;21.17;12.33;;;4.20;20.20;;;;;;5016079;28;20463;-60
2023/03/08 05:41:40;;;;;;;21.37;12.53;;;4.20;20.20;;;;;;5026546;28;20834;-61
2023/03/08 05:44:07;;;;;;;22.10;12.80;;;4.20;20.30;;;;;;5033116;28;20458;-61
2023/03/08 05:46:36;;;;;;;21.60;12.33;;;4.30;20.50;;;;;;5037030;28;20483;-60
2023/03/08 05:49:04;;;;;;;21.87;13.00;;;4.30;20.50;;;;;;5030291;28;20464;-62
2023/03/08 05:51:31;;;;;;;23.50;13.53;;;4.30;20.60;;;;;;5026391;28;20463;-61
2023/03/08 05:53:58;;;;;;;24.87;13.07;;;4.30;20.70;;;;;;5034987;28;20460;-61
2023/03/08 05:56:25;;;;;;;22.37;12.90;;;4.30;20.60;;;;;;5030612;28;20479;-61
2023/03/08 05:58:52;;;;;;;25.33;12.97;;;4.30;20.60;;;;;;5022925;28;20462;-61
2023/03/08 06:01:21;;;;;;;23.67;12.50;;;4.30;20.60;;;;;;5020143;28;20485;-62
2023/03/08 06:03:49;;;;;;;23.30;13.23;;;4.20;20.80;;;;;;5027686;28;20463;-61
2023/03/08 06:06:18;;;;;;;23.83;13.30;;;4.30;20.90;;;;;;5019701;28;20462;-61
2023/03/08 06:08:45;;;;;;;20.00;12.53;;;4.30;20.80;;;;;;5022589;28;20466;-62
2023/03/08 06:11:12;;;;;;;20.30;12.50;;;4.30;20.70;;;;;;5023042;28;20474;-61
2023/03/08 06:13:39;;;;;;;23.00;11.80;;;4.30;20.70;;;;;;5025453;28;20542;-61
2023/03/08 06:16:07;;;;;;;23.87;13.57;;;4.30;20.70;;;;;;5022570;28;21062;-60
2023/03/08 06:18:36;;;;;;;24.53;13.87;;;4.30;20.70;;;;;;5017916;28;20966;-61
2023/03/08 06:21:05;;;;;;;23.23;12.87;;;4.30;20.70;;;;;;5020725;28;20460;-60
2023/03/08 06:23:35;;;;;;;24.10;14.00;;;4.40;20.70;;;;;;5012712;28;20468;-62
2023/03/08 06:26:03;;;;;;;20.13;12.13;;;4.40;20.60;;;;;;5019158;28;20459;-61
2023/03/08 06:28:30;;;;;;;23.53;13.60;;;4.40;20.60;;;;;;5017210;28;20494;-62
2023/03/08 06:30:57;;;;;;;30.10;13.30;;;4.40;20.60;;;;;;5016643;28;20728;-62
2023/03/08 06:33:27;;;;;;;23.83;12.63;;;4.40;20.50;;;;;;5010205;28;20469;-61
2023/03/08 06:35:57;;;;;;;24.97;13.30;;;4.40;20.60;;;;;;5015877;28;20474;-60
2023/03/08 06:38:25;;;;;;;25.90;13.63;;;4.40;20.50;;;;;;5016242;28;20539;-61
2023/03/08 06:40:53;;;;;;;25.77;13.50;;;4.50;20.60;;;;;;5014604;28;20951;-60
2023/03/08 06:43:20;;;;;;;25.57;15.33;;;4.50;20.60;;;;;;5016191;28;20459;-61
2023/03/08 06:45:47;;;;;;;25.43;14.60;;;4.50;20.60;;;;;;5017454;28;20470;-61
2023/03/08 06:48:14;;;;;;;28.00;16.57;;;4.60;20.70;;;;;;5021929;28;20479;-61
2023/03/08 06:50:41;;;;;;;29.77;16.27;;;4.50;20.80;;;;;;5019533;28;20849;-60
2023/03/08 06:53:08;;;;;;;28.37;16.57;;;4.50;20.90;;;;;;5019972;28;20993;-60
2023/03/08 07:00:47;;;;;;;25.43;14.33;;;4.60;21.00;;;;;;5868495;22;20861;-61
2023/03/08 07:03:14;;;;;;;27.30;17.03;;;4.60;20.90;;;;;;5032110;28;21009;-60
2023/03/08 07:23:53;;;;;;;26.30;14.03;;;5.10;21.40;;;;;;5119518;22;20485;-64
2023/03/08 07:26:23;;;;;;;22.23;12.80;;;5.20;21.10;;;;;;5032784;28;20478;-65
2023/03/08 07:29:01;;;;;;;20.47;13.80;;;5.30;20.60;;;;;;5034537;28;20543;-63
2023/03/08 07:31:36;;;;;;;23.77;14.07;;;5.50;20.10;;;;;;5027515;28;20564;-63
2023/03/08 07:34:08;;;;;;;23.70;13.20;;;5.80;19.70;;;;;;5036515;28;20541;-62
2023/03/08 07:41:48;;;;;;;23.00;11.90;;;6.40;18.60;;;;;;1485141;26;20478;-62
2023/03/08 07:44:15;;;;;;;18.60;12.30;;;6.40;18.00;;;;;;5034234;28;20470;-62
2023/03/08 07:46:42;;;;;;;21.33;13.17;;;6.50;18.00;;;;;;5021411;28;20458;-62
2023/03/08 07:49:10;;;;;;;21.07;11.07;;;6.50;18.00;;;;;;5017859;28;20659;-62
2023/03/08 07:51:37;;;;;;;21.00;12.40;;;6.60;17.90;;;;;;5022905;28;20959;-61
2023/03/08 07:54:04;;;;;;;21.70;12.67;;;6.70;17.70;;;;;;5017322;28;20486;-64
2023/03/08 07:56:31;;;;;;;19.67;12.30;;;6.80;17.50;;;;;;5019517;28;20493;-61
2023/03/08 07:58:59;;;;;;;21.60;12.20;;;6.90;17.50;;;;;;5019601;28;20465;-61
2023/03/08 08:01:26;;;;;;;18.73;12.37;;;6.90;17.10;;;;;;5018094;28;20472;-62
2023/03/08 08:03:52;;;;;;;19.90;11.97;;;7.00;17.10;;;;;;5021491;28;20466;-61
2023/03/08 08:29:38;;;;;;;21.77;13.47;;;7.00;17.90;;;;;;5331723;22;20469;-67
2023/03/08 08:32:06;;;;;;;21.40;12.87;;;7.00;18.10;;;;;;4998074;28;21445;-68
2023/03/08 08:34:32;;;;;;;21.20;12.13;;;7.00;18.10;;;;;;4999720;28;20501;-68
2023/03/08 08:36:59;;;;;;;17.53;10.73;;;7.00;18.20;;;;;;4998036;28;20480;-66
2023/03/08 08:39:26;;;;;;;16.03;10.33;;;7.00;18.20;;;;;;4998039;28;20462;-64
2023/03/08 08:41:53;;;;;;;15.30;9.10;;;7.00;17.90;;;;;;5002896;28;20468;-64
2023/03/08 08:44:19;;;;;;;22.20;8.73;;;7.10;17.90;;;;;;4999991;28;20460;-66
2023/03/08 08:46:48;;;;;;;12.87;9.07;;;7.10;17.80;;;;;;5000437;28;20526;-67
2023/03/08 08:49:14;;;;;;;13.00;7.90;;;7.10;17.70;;;;;;4994505;28;20460;-67
2023/03/08 08:51:41;;;;;;;13.77;8.70;;;7.10;17.60;;;;;;5004416;28;20464;-66
2023/03/08 08:54:08;;;;;;;14.93;8.37;;;7.10;17.50;;;;;;4994782;28;20833;-66
2023/03/08 08:56:41;;;;;;;14.37;7.60;;;7.10;17.50;;;;;;4997533;28;20480;-66
2023/03/08 08:59:10;;;;;;;12.80;7.70;;;7.10;17.50;;;;;;4994245;28;20461;-67
2023/03/08 09:01:42;;;;;;;13.23;7.27;;;7.10;17.70;;;;;;4991710;28;20509;-66
2023/03/08 09:04:10;;;;;;;12.40;7.67;;;7.20;17.50;;;;;;5000070;28;20551;-66
2023/03/08 09:06:37;;;;;;;12.80;7.87;;;7.20;18.00;;;;;;4998162;28;20456;-67
2023/03/08 09:09:04;;;;;;;13.63;7.87;;;7.20;18.10;;;;;;5000172;28;20472;-66
2023/03/08 09:11:32;;;;;;;13.77;7.50;;;7.20;18.20;;;;;;5001162;28;20512;-66
2023/03/08 09:14:01;;;;;;;14.50;8.53;;;7.20;18.10;;;;;;5001207;28;21051;-65
2023/03/08 09:16:29;;;;;;;13.87;8.67;;;7.20;17.80;;;;;;5002459;28;20988;-62
2023/03/08 09:18:57;;;;;;;12.63;7.40;;;7.20;17.80;;;;;;4999280;28;20465;-68
2023/03/08 09:21:27;;;;;;;13.87;8.50;;;7.20;17.90;;;;;;5005483;28;20482;-65
2023/03/08 09:23:54;;;;;;;16.07;9.70;;;7.20;18.10;;;;;;5006508;28;20466;-64
2023/03/08 09:26:21;;;;;;;15.90;8.87;;;7.20;18.20;;;;;;5006232;28;20848;-65
2023/03/08 09:28:47;;;;;;;14.90;8.73;;;7.20;18.30;;;;;;5003906;28;20462;-63
2023/03/08 09:31:16;;;;;;;16.13;8.37;;;7.20;18.40;;;;;;5002110;28;20485;-63
2023/03/08 09:33:45;;;;;;;14.63;9.07;;;7.20;18.30;;;;;;5000874;28;21040;-66
2023/03/08 09:36:12;;;;;;;14.30;9.03;;;7.20;18.50;;;;;;5004416;28;20476;-67
2023/03/08 09:38:41;;;;;;;13.27;8.87;;;7.20;18.50;;;;;;5001090;28;20476;-62
2023/03/08 09:41:24;;;;;;;13.23;8.43;;;7.20;18.50;;;;;;5004248;28;20534;-64
2023/03/08 09:44:04;;;;;;;20.10;11.23;;;7.20;18.90;;;;;;5001606;28;20460;-64
2023/03/08 09:46:37;;;;;;;13.57;7.50;;;7.30;18.90;;;;;;5003669;28;20463;-63
2023/03/08 09:49:11;;;;;;;13.40;8.30;;;7.40;18.60;;;;;;5006029;28;20475;-65
2023/03/08 09:51:40;;;;;;;13.30;7.80;;;7.40;18.90;;;;;;5000912;28;20464;-64
2023/03/08 09:54:12;;;;;;;10.87;6.93;;;7.50;18.50;;;;;;5004851;28;20459;-62
2023/03/08 09:56:45;;;;;;;13.60;7.70;;;7.50;18.60;;;;;;5002596;28;21106;-62
2023/03/08 09:59:16;;;;;;;12.90;6.07;;;7.60;18.30;;;;;;5003102;28;20463;-65
2023/03/08 10:01:52;;;;;;;12.27;6.37;;;7.70;18.20;;;;;;4999339;28;20507;-68
2023/03/08 10:04:33;;;;;;;10.10;6.23;;;7.90;18.10;;;;;;5028383;22;20517;-66
2023/03/08 10:07:16;;;;;;;10.10;6.23;;;8.00;18.20;;;;;;5010314;28;20581;-64
2023/03/08 10:09:52;;;;;;;11.90;6.67;;;8.20;17.70;;;;;;5020978;28;20481;-68
2023/03/08 10:12:25;;;;;;;15.80;6.60;;;8.30;17.50;;;;;;5015198;28;20462;-64
2023/03/08 10:14:57;;;;;;;12.50;6.43;;;8.40;17.30;;;;;;4995767;28;20488;-62
2023/03/08 10:17:29;;;;;;;10.63;6.43;;;8.50;17.10;;;;;;5001149;28;20495;-62
2023/03/08 10:20:00;;;;;;;10.10;6.00;;;8.50;17.10;;;;;;4996726;28;20496;-63
2023/03/08 10:22:29;;;;;;;13.47;5.83;;;8.60;16.70;;;;;;4996353;28;20456;-65
2023/03/08 10:25:00;;;;;;;10.73;6.57;;;8.60;17.00;;;;;;5000500;28;21031;-64
2023/03/08 10:27:31;;;;;;;9.87;6.50;;;8.70;17.10;;;;;;5003154;28;20455;-66
2023/03/08 10:30:00;;;;;;;11.53;7.00;;;8.80;16.90;;;;;;5000294;28;20460;-64
2023/03/08 10:32:28;;;;;;;12.00;5.80;;;8.90;17.00;;;;;;4998379;28;20480;-63
2023/03/08 10:35:01;;;;;;;10.50;6.47;;;8.90;17.30;;;;;;4996940;28;20490;-63
2023/03/08 10:37:31;;;;;;;10.27;5.80;;;8.90;17.50;;;;;;4998903;28;20484;-63
2023/03/08 10:40:04;;;;;;;9.60;5.07;;;9.00;17.40;;;;;;4996980;28;20463;-64
2023/03/08 10:42:33;;;;;;;13.33;5.20;;;9.10;17.60;;;;;;4998766;28;20465;-64
2023/03/08 10:45:04;;;;;;;11.47;5.63;;;9.10;17.70;;;;;;4998147;28;20488;-63
2023/03/08 10:47:33;;;;;;;9.70;5.73;;;9.20;17.70;;;;;;5007193;28;20452;-64
2023/03/08 10:50:09;;;;;;;10.40;5.07;;;9.20;17.70;;;;;;4994907;28;20456;-63
2023/03/08 10:52:36;;;;;;;9.83;5.07;;;9.30;17.90;;;;;;5001238;28;20841;-62
2023/03/08 10:55:07;;;;;;;6.97;4.00;;;9.30;17.80;;;;;;4994307;28;20475;-63
2023/03/08 10:57:34;;;;;;;7.23;3.73;;;9.30;18.10;;;;;;5001599;28;20495;-63
2023/03/08 11:00:10;;;;;;;9.10;4.33;;;9.30;18.30;;;;;;4997853;28;20457;-64
2023/03/08 11:02:37;;;;;;;7.27;4.20;;;9.40;18.50;;;;;;5003984;28;20491;-63
2023/03/08 11:05:18;;;;;;;17.60;5.77;;;9.50;18.80;;;;;;5002910;28;20536;-63
2023/03/08 11:07:51;;;;;;;8.13;4.10;;;9.60;18.70;;;;;;5000353;28;20467;-64
2023/03/08 11:10:22;;;;;;;12.43;4.00;;;9.70;18.80;;;;;;4997717;28;20575;-62
2023/03/08 11:12:59;;;;;;;7.07;3.80;;;9.80;18.50;;;;;;4998251;28;20834;-61
2023/03/08 11:15:28;;;;;;;8.77;4.73;;;9.90;18.40;;;;;;5005313;28;20466;-61
2023/03/08 11:18:00;;;;;;;10.30;3.80;;;9.90;18.50;;;;;;5000247;28;20472;-61
2023/03/08 11:20:31;;;;;;;7.10;3.10;;;10.00;18.40;;;;;;4998987;28;20796;-60
2023/03/08 11:23:15;;;;;;;8.33;3.40;;;10.10;18.50;;;;;;5006454;28;20480;-60
2023/03/08 11:25:46;;;;;;;7.27;3.63;;;10.20;18.30;;;;;;5002786;28;20458;-60
2023/03/08 11:28:40;;;;;;;11.57;4.00;;;10.20;18.30;;;;;;5002926;28;20468;-61
2023/03/08 11:31:16;;;;;;;8.50;3.23;;;10.30;18.10;;;;;;5000004;28;20479;-61
2023/03/08 11:34:15;;;;;;;7.13;3.90;;;10.40;17.80;;;;;;4991706;28;21029;-61
2023/03/08 11:36:48;;;;;;;7.03;3.10;;;10.40;17.90;;;;;;4996111;28;20464;-60
2023/03/08 11:39:23;;;;;;;6.70;3.40;;;10.40;18.10;;;;;;5001095;28;21276;-60
2023/03/08 11:41:59;;;;;;;8.67;3.87;;;10.40;18.10;;;;;;5001926;28;20451;-59
2023/03/08 11:44:46;;;;;;;6.50;3.10;;;10.40;18.30;;;;;;4999533;28;20480;-60
2023/03/08 11:47:42;;;;;;;7.90;2.70;;;10.40;18.40;;;;;;4999681;28;20479;-61
2023/03/08 11:50:16;;;;;;;6.80;3.13;;;10.50;18.40;;;;;;4998602;28;20475;-61
2023/03/08 11:52:51;;;;;;;7.27;3.43;;;10.60;18.40;;;;;;5003396;28;20470;-60
2023/03/08 11:55:33;;;;;;;6.80;3.07;;;10.70;18.40;;;;;;4997380;28;20474;-60
2023/03/08 11:58:09;;;;;;;6.90;3.57;;;10.80;18.40;;;;;;5001996;28;20489;-63
2023/03/08 12:00:38;;;;;;;5.87;3.10;;;10.90;18.40;;;;;;5000761;28;20470;-61
2023/03/08 12:03:12;;;;;;;7.23;3.43;;;11.00;18.10;;;;;;5000881;28;20882;-61
2023/03/08 12:05:42;;;;;;;6.13;3.17;;;11.10;18.00;;;;;;4997732;28;20468;-61
2023/03/08 12:08:15;;;;;;;6.80;2.70;;;11.10;17.90;;;;;;4992549;28;20465;-61
2023/03/08 12:10:48;;;;;;;7.23;3.07;;;11.10;18.10;;;;;;4994394;28;20549;-62
2023/03/08 12:13:20;;;;;;;6.07;3.00;;;11.10;17.90;;;;;;4997038;28;21008;-61
2023/03/08 12:15:52;;;;;;;9.10;3.00;;;11.10;18.70;;;;;;4999008;28;20494;-62
2023/03/08 12:18:25;;;;;;;6.37;3.37;;;11.20;18.20;;;;;;4999439;28;20475;-64
2023/03/08 12:20:59;;;;;;;6.27;2.87;;;11.20;18.30;;;;;;5001003;28;20468;-64
2023/03/08 12:23:33;;;;;;;6.57;2.73;;;11.40;18.40;;;;;;4994157;28;20482;-61
2023/03/08 12:26:06;;;;;;;4.80;2.30;;;11.40;18.30;;;;;;5002203;28;20456;-61
2023/03/08 12:28:40;;;;;;;7.83;2.40;;;11.50;18.60;;;;;;4992917;28;20543;-61
2023/03/08 12:31:24;;;;;;;6.47;2.47;;;11.60;18.50;;;;;;4995063;28;20490;-62
2023/03/08 12:33:51;;;;;;;5.70;2.43;;;11.70;18.30;;;;;;4998503;28;21287;-62
2023/03/08 12:36:21;;;;;;;6.00;2.50;;;11.70;18.30;;;;;;5000958;28;20460;-61
2023/03/08 12:38:55;;;;;;;5.40;2.10;;;11.70;18.30;;;;;;4999301;28;20561;-60
2023/03/08 12:41:24;;;;;;;5.40;2.47;;;11.70;18.50;;;;;;4992222;28;20463;-60
2023/03/08 12:44:04;;;;;;;5.93;2.67;;;11.70;19.30;;;;;;4993938;28;20945;-59
2023/03/08 12:46:50;;;;;;;6.00;2.00;;;11.70;18.90;;;;;;4998593;28;20472;-60
2023/03/08 12:49:25;;;;;;;4.30;1.43;;;11.70;19.20;;;;;;5002831;28;20471;-60
2023/03/08 12:52:01;;;;;;;9.40;1.97;;;11.70;19.20;;;;;;4994121;28;20456;-59
2023/03/08 12:54:32;;;;;;;4.70;1.90;;;11.70;19.40;;;;;;5006676;28;20849;-59
2023/03/08 12:57:01;;;;;;;7.47;2.43;;;11.60;19.40;;;;;;5007604;28;20948;-59
2023/03/08 12:59:35;;;;;;;6.10;1.73;;;11.60;19.70;;;;;;5001800;28;20972;-59
2023/03/08 13:02:19;;;;;;;5.40;2.33;;;11.50;20.00;;;;;;5000315;28;20480;-59
2023/03/08 13:04:46;;;;;;;4.40;1.57;;;11.50;20.00;;;;;;5002081;28;20499;-59
2023/03/08 13:07:23;;;;;;;4.60;1.73;;;11.40;20.50;;;;;;5006048;28;20475;-60
2023/03/08 13:09:56;;;;;;;5.23;1.67;;;11.30;21.30;;;;;;5003145;28;20455;-59
2023/03/08 13:12:29;;;;;;;4.00;1.40;;;11.20;21.90;;;;;;5007994;28;20470;-60
2023/03/08 13:15:18;;;;;;;5.60;1.70;;;11.10;22.20;;;;;;5005201;28;20499;-61
2023/03/08 13:17:50;;;;;;;4.10;1.23;;;11.00;22.70;;;;;;5004868;28;20523;-60
2023/03/08 13:20:20;;;;;;;4.30;1.77;;;11.00;23.30;;;;;;5003041;28;20474;-61
2023/03/08 13:22:59;;;;;;;4.83;1.70;;;10.90;23.50;;;;;;5001810;28;20467;-60
2023/03/08 13:25:47;;;;;;;5.83;1.53;;;10.90;24.00;;;;;;4997514;28;20462;-60
2023/03/08 13:28:16;;;;;;;4.67;1.60;;;10.80;24.70;;;;;;4999494;28;20954;-61
2023/03/08 13:30:50;;;;;;;4.13;1.30;;;10.70;25.00;;;;;;4999440;28;20514;-60
2023/03/08 13:33:20;;;;;;;3.80;1.13;;;10.70;25.30;;;;;;4997833;28;20485;-60
2023/03/08 13:35:58;;;;;;;4.53;1.57;;;10.70;25.80;;;;;;5004499;28;20808;-60
2023/03/08 13:38:29;;;;;;;5.23;1.87;;;10.70;25.90;;;;;;5005647;28;20685;-60
2023/03/08 13:40:57;;;;;;;5.60;2.20;;;10.70;26.10;;;;;;5011606;28;20467;-60
2023/03/08 13:43:26;;;;;;;3.83;1.00;;;10.70;26.20;;;;;;5008478;28;20482;-61
2023/03/08 13:45:57;;;;;;;6.80;1.33;;;10.80;26.40;;;;;;5000652;28;20754;-59
2023/03/08 13:48:28;;;;;;;3.90;0.90;;;10.80;26.50;;;;;;5003863;28;20459;-60